Time;durP1;ratioP1;P1;durP2;ratioP2;P2;SDS_P1;SDS_P2;PMS_P1;PMS_P2;Temp;Humidity;BMP_temperature;BMP_pressure;BME280_temperature;BME280_humidity;BME280_pressure;Samples;Min_cycle;Max_cycle;Signal;HPM_P1;HPM_P2
2022/06/27 00:02:42;;;;;;;;;8.50;8.00;;;;;24.52;61.36;101059.25;146619;699;46010;-70
2022/06/27 00:05:34;;;;;;;;;7.33;7.33;;;;;24.47;61.20;101051.28;146615;638;46018;-68
2022/06/27 00:08:26;;;;;;;;;10.00;9.33;;;;;24.45;61.38;101049.50;146620;580;45046;-67
2022/06/27 00:11:20;;;;;;;;;8.25;7.75;;;;;24.41;61.61;101041.56;146620;722;46008;-70
2022/06/27 00:14:12;;;;;;;;;9.75;8.75;;;;;24.40;61.44;101039.75;146618;606;46018;-70
2022/06/27 00:17:05;;;;;;;;;7.75;7.00;;;;;24.43;61.46;101047.75;146614;578;46018;-69
2022/06/27 00:19:58;;;;;;;;;9.25;8.75;;;;;24.49;61.61;101038.91;146618;618;46020;-69
2022/06/27 00:22:51;;;;;;;;;9.33;9.00;;;;;24.53;60.51;101037.13;146619;686;46008;-68
2022/06/27 00:25:42;;;;;;;;;12.67;8.67;;;;;24.56;60.39;101034.50;146620;701;46012;-69
2022/06/27 00:28:35;;;;;;;;;8.00;7.00;;;;;24.59;60.08;101030.06;146619;613;46019;-68
2022/06/27 00:31:27;;;;;;;;;8.00;8.00;;;;;24.65;60.12;101038.00;146616;611;46010;-72
2022/06/27 00:34:19;;;;;;;;;4.00;4.00;;;;;24.71;60.03;101031.81;146618;566;45917;-70
2022/06/27 00:37:11;;;;;;;;;9.67;8.33;;;;;24.79;59.92;101029.13;146617;566;46019;-69
2022/06/27 00:40:04;;;;;;;;;9.67;8.33;;;;;24.82;59.95;101029.13;146616;600;46018;-70
2022/06/27 00:42:56;;;;;;;;;8.00;8.00;;;;;24.84;59.55;101017.63;146619;673;46010;-72
2022/06/27 00:45:48;;;;;;;;;7.75;7.00;;;;;24.89;58.94;101013.22;146617;573;46008;-70
2022/06/27 00:48:40;;;;;;;;;8.33;7.67;;;;;24.94;58.50;101012.28;146620;588;46010;-69
2022/06/27 00:51:33;;;;;;;;;9.00;8.33;;;;;24.96;58.61;101011.41;146616;571;46019;-68
2022/06/27 00:54:26;;;;;;;;;10.50;7.00;;;;;24.97;58.32;101012.28;146620;637;46010;-67
2022/06/27 00:57:20;;;;;;;;;9.00;8.33;;;;;24.99;58.09;101010.53;146618;563;46010;-69
2022/06/27 01:00:14;;;;;;;;;8.00;7.00;;;;;25.00;57.84;101005.19;146622;657;45044;-69
2022/06/27 01:03:06;;;;;;;;;7.33;6.67;;;;;25.04;57.43;100995.44;146619;649;46008;-70
2022/06/27 01:05:58;;;;;;;;;8.75;7.75;;;;;25.06;56.39;101006.94;146618;629;46018;-70
2022/06/27 01:08:50;;;;;;;;;7.67;6.67;;;;;25.02;56.58;101002.56;146614;610;46918;-69
2022/06/27 01:11:43;;;;;;;;;9.00;9.00;;;;;25.00;56.93;101002.53;146616;582;46027;-69
2022/06/27 01:14:36;;;;;;;;;6.00;6.00;;;;;25.03;57.31;100997.22;146617;692;46009;-71
2022/06/27 01:17:29;;;;;;;;;7.00;7.00;;;;;25.10;57.84;101003.37;146619;580;46010;-70
2022/06/27 01:20:21;;;;;;;;;6.33;6.33;;;;;25.17;57.17;100993.66;146616;564;46008;-70
2022/06/27 01:23:13;;;;;;;;;8.00;6.33;;;;;25.22;57.14;100995.41;146618;654;46010;-70
2022/06/27 01:26:05;;;;;;;;;8.00;7.67;;;;;25.25;56.23;100997.16;146620;612;45018;-69
2022/06/27 01:28:58;;;;;;;;;9.00;7.00;;;;;25.24;56.61;100983.03;146620;569;45019;-69
2022/06/27 01:31:50;;;;;;;;;6.33;5.67;;;;;25.23;56.07;100986.53;146616;579;46018;-71
2022/06/27 01:34:42;;;;;;;;;9.00;6.67;;;;;25.24;56.08;100992.75;146619;591;46012;-70
2022/06/27 01:37:35;;;;;;;;;9.00;7.67;;;;;25.21;56.50;100988.34;146620;572;46008;-71
2022/06/27 01:40:27;;;;;;;;;8.00;6.67;;;;;25.21;56.30;100985.69;146618;571;46018;-71
2022/06/27 01:43:19;;;;;;;;;3.00;3.00;;;;;25.20;56.43;100981.25;146621;607;46008;-71
2022/06/27 01:46:10;;;;;;;;;7.67;7.67;;;;;25.21;56.75;100996.31;146621;571;46010;-69
2022/06/27 01:49:03;;;;;;;;;8.00;6.67;;;;;25.21;56.01;100993.66;146621;613;46008;-69
2022/06/27 01:51:55;;;;;;;;;8.00;7.33;;;;;25.17;56.62;100994.56;146621;583;46010;-69
2022/06/27 01:54:48;;;;;;;;;7.00;5.75;;;;;25.08;56.23;100999.87;146617;563;46018;-69
2022/06/27 01:57:40;;;;;;;;;10.00;7.67;;;;;24.92;56.68;101003.44;146617;582;46012;-70
2022/06/27 02:00:32;;;;;;;;;6.67;6.67;;;;;24.72;57.12;101007.06;146617;574;46010;-68
2022/06/27 02:03:24;;;;;;;;;11.00;8.75;;;;;24.56;57.86;101006.19;146618;631;46010;-69
2022/06/27 02:06:17;;;;;;;;;7.00;6.00;;;;;24.43;58.98;101002.69;146617;564;46018;-70
2022/06/27 02:09:11;;;;;;;;;8.75;7.75;;;;;24.32;59.41;101004.41;146619;672;46010;-72
2022/06/27 02:12:18;;;;;;;;;9.00;8.33;;;;;24.19;59.74;101005.31;146619;580;46019;-78
2022/06/27 02:15:10;;;;;;;;;6.67;6.00;;;;;24.04;59.39;101000.91;146613;661;46010;-76
2022/06/27 02:18:03;;;;;;;;;7.00;7.00;;;;;23.96;59.33;100992.97;146617;676;46008;-77
2022/06/27 02:20:55;;;;;;;;;8.75;8.25;;;;;23.89;58.72;100996.47;146619;671;46011;-75
2022/06/27 02:23:47;;;;;;;;;7.00;6.00;;;;;23.85;59.74;100994.72;146618;587;45917;-72
2022/06/27 02:26:40;;;;;;;;;6.33;6.33;;;;;23.83;59.13;100995.56;146618;633;46011;-70
2022/06/27 02:29:32;;;;;;;;;9.67;7.67;;;;;23.79;58.41;100993.81;146615;590;46019;-73
2022/06/27 02:32:25;;;;;;;;;7.00;6.00;;;;;23.78;58.06;100995.59;146620;605;46012;-68
2022/06/27 02:35:19;;;;;;;;;6.00;5.75;;;;;23.81;58.77;100995.59;146614;618;46917;-71
2022/06/27 02:38:14;;;;;;;;;8.00;5.33;;;;;23.89;59.06;101001.75;146615;591;46018;-72
2022/06/27 02:41:09;;;;;;;;;6.00;5.00;;;;;23.98;57.91;101001.78;146617;572;45917;-72
2022/06/27 02:44:09;;;;;;;;;8.67;7.67;;;;;24.05;57.47;101001.78;146620;595;46010;-70
2022/06/27 02:47:03;;;;;;;;;8.67;8.00;;;;;24.10;57.69;101007.97;146615;629;46018;-69
2022/06/27 02:50:20;;;;;;;;;7.33;7.33;;;;;24.15;58.13;101012.38;146617;658;46011;-70
2022/06/27 02:53:28;;;;;;;;;7.50;7.50;;;;;24.29;57.54;101016.78;146618;713;46008;-69
2022/06/27 02:56:37;;;;;;;;;7.67;6.33;;;;;24.33;56.85;101018.56;146615;581;46019;-70
2022/06/27 02:59:42;;;;;;;;;9.67;8.67;;;;;24.30;56.93;101026.50;146612;574;46008;-70
2022/06/27 03:02:49;;;;;;;;;10.00;10.00;;;;;23.23;56.94;100850.78;146612;597;46018;-69
2022/06/27 03:06:27;;;;;;;;;30.25;27.00;;;;;22.40;57.92;100736.03;146608;578;46008;-70
2022/06/27 03:09:53;;;;;;;;;10.50;9.75;;;;;23.96;58.60;101031.81;146615;676;46020;-70
2022/06/27 03:13:03;;;;;;;;;9.75;8.75;;;;;23.84;59.01;101039.75;146610;569;46019;-69
2022/06/27 03:16:23;;;;;;;;;8.00;7.00;;;;;23.70;59.28;101037.91;146614;655;46020;-70
2022/06/27 03:19:20;;;;;;;;;13.25;12.25;;;;;22.64;59.46;100862.06;146604;570;47008;-70
2022/06/27 03:30:29;;;;;;;;;8.25;8.25;;;;;23.74;59.39;101037.06;146614;689;46020;-72
2022/06/27 03:45:36;;;;;;;;;8.00;7.75;;;;;23.90;58.45;101043.28;146613;604;46020;-76
2022/06/27 03:52:00;;;;;;;;;10.75;10.50;;;;;23.94;58.92;101054.75;146611;686;46020;-71
2022/06/27 03:55:23;;;;;;;;;9.75;8.50;;;;;23.98;59.27;101052.09;146609;659;46018;-70
2022/06/27 03:58:34;;;;;;;;;8.00;6.50;;;;;24.03;59.42;101057.41;146614;610;46008;-71
2022/06/27 04:01:53;;;;;;;;;10.50;8.50;;;;;24.11;59.32;101065.34;146606;569;46919;-70
2022/06/27 04:04:45;;;;;;;;;10.00;9.00;;;;;24.22;59.62;101063.63;146613;624;46019;-69
2022/06/27 04:07:38;;;;;;;;;11.25;10.25;;;;;24.34;60.24;101065.41;146608;710;46918;-72
2022/06/27 04:10:30;;;;;;;;;10.00;10.00;;;;;24.46;60.02;101072.50;146612;669;46019;-71
2022/06/27 04:13:23;;;;;;;;;8.50;7.75;;;;;24.57;59.96;101071.59;146635;679;46920;-70
2022/06/27 04:16:16;;;;;;;;;9.25;8.50;;;;;24.69;59.92;101075.13;146639;660;45018;-74
2022/06/27 04:19:08;;;;;;;;;7.67;7.67;;;;;24.79;59.88;101075.09;146635;651;45919;-73
2022/06/27 04:22:00;;;;;;;;;7.67;7.67;;;;;24.92;59.85;101073.28;146644;577;45010;-74
2022/06/27 04:24:52;;;;;;;;;8.75;8.00;;;;;25.01;59.52;101072.41;146640;585;45010;-75
2022/06/27 04:27:44;;;;;;;;;12.25;10.75;;;;;25.07;59.32;101067.94;146635;622;45020;-71
2022/06/27 04:30:38;;;;;;;;;11.67;9.33;;;;;25.14;59.56;101079.50;146635;563;45028;-71
2022/06/27 04:33:31;;;;;;;;;10.00;8.75;;;;;25.22;59.86;101083.00;146630;576;45913;-72
2022/06/27 04:36:24;;;;;;;;;9.75;9.00;;;;;24.73;59.54;100994.66;146636;682;46010;-70
2022/06/27 04:39:17;;;;;;;;;11.25;10.25;;;;;25.33;58.84;101064.37;146633;694;45018;-70
2022/06/27 04:42:10;;;;;;;;;12.25;9.75;;;;;25.38;58.31;101061.69;146634;601;45018;-70
2022/06/27 04:45:03;;;;;;;;;10.00;9.00;;;;;25.38;58.02;101069.66;146638;670;45010;-70
2022/06/27 04:47:56;;;;;;;;;11.33;9.00;;;;;25.42;58.91;101071.41;146634;583;46008;-70
2022/06/27 04:50:48;;;;;;;;;14.25;13.00;;;;;25.56;58.22;101070.47;146638;618;45010;-70
2022/06/27 04:53:41;;;;;;;;;8.33;7.67;;;;;25.66;58.23;101073.94;146637;578;45011;-70
2022/06/27 04:56:33;;;;;;;;;12.75;9.25;;;;;25.75;57.28;101084.53;146634;590;45012;-70
2022/06/27 04:59:25;;;;;;;;;10.33;9.00;;;;;25.88;58.44;101084.47;146639;584;45010;-70
2022/06/27 05:02:18;;;;;;;;;10.67;9.33;;;;;26.13;57.69;101082.53;146638;603;45010;-70
2022/06/27 05:05:12;;;;;;;;;12.50;11.00;;;;;26.43;56.71;101089.41;146631;658;45018;-70
2022/06/27 05:08:04;;;;;;;;;10.25;9.25;;;;;26.73;55.84;101093.63;146638;599;45010;-70
2022/06/27 05:10:56;;;;;;;;;9.50;9.50;;;;;27.00;55.35;101092.44;146633;599;45019;-70
2022/06/27 05:13:48;;;;;;;;;12.00;10.33;;;;;27.24;55.53;101095.78;146612;674;46010;-72
2022/06/27 05:16:40;;;;;;;;;12.75;11.50;;;;;27.48;54.41;101098.13;146604;564;46008;-70
2022/06/27 05:19:32;;;;;;;;;10.25;9.25;;;;;27.62;54.12;101096.16;146608;705;46018;-70
2022/06/27 05:22:24;;;;;;;;;9.00;9.00;;;;;27.78;53.91;101104.84;146615;590;46018;-73
2022/06/27 05:25:16;;;;;;;;;11.00;10.00;;;;;27.92;53.21;101099.34;146613;591;46010;-71
2022/06/27 05:28:09;;;;;;;;;13.50;12.50;;;;;28.05;52.54;101095.59;146608;661;46008;-72
2022/06/27 05:31:01;;;;;;;;;14.25;10.75;;;;;28.16;52.14;101106.06;146607;693;46012;-72
2022/06/27 05:33:53;;;;;;;;;12.25;11.00;;;;;28.28;52.00;101105.00;146603;637;46008;-70
2022/06/27 05:36:46;;;;;;;;;11.00;9.00;;;;;28.40;52.15;101099.50;146611;655;46018;-69
2022/06/27 05:39:40;;;;;;;;;11.75;11.50;;;;;28.55;51.90;101101.94;146606;667;46010;-70
2022/06/27 05:42:34;;;;;;;;;11.75;9.75;;;;;28.71;51.84;101099.88;146611;584;46012;-69
2022/06/27 05:45:26;;;;;;;;;12.00;11.50;;;;;28.85;52.99;101098.72;146608;704;46010;-69
2022/06/27 05:48:19;;;;;;;;;14.25;11.00;;;;;28.90;52.60;101103.09;146611;575;46018;-71
2022/06/27 05:51:11;;;;;;;;;11.25;9.50;;;;;28.90;54.29;101102.22;146611;572;46018;-72
2022/06/27 05:54:03;;;;;;;;;13.25;12.00;;;;;28.92;54.43;101105.75;146609;641;45047;-71
2022/06/27 05:56:56;;;;;;;;;14.75;12.25;;;;;28.90;53.99;101100.41;146601;569;47008;-71
2022/06/27 05:59:48;;;;;;;;;10.75;10.00;;;;;28.89;53.90;101098.66;146606;679;46010;-71
2022/06/27 06:02:41;;;;;;;;;10.25;9.00;;;;;28.89;53.96;101106.66;146610;589;46019;-69
2022/06/27 06:05:34;;;;;;;;;12.00;11.00;;;;;28.87;54.22;101099.59;146607;563;46010;-70
2022/06/27 06:08:27;;;;;;;;;12.00;11.00;;;;;28.87;53.87;101099.59;146607;569;46008;-70
2022/06/27 06:11:19;;;;;;;;;12.00;10.00;;;;;28.85;53.87;101106.75;146607;658;45020;-70
2022/06/27 06:14:11;;;;;;;;;10.50;9.75;;;;;28.80;53.66;101103.28;146609;565;46018;-71
2022/06/27 06:17:03;;;;;;;;;11.00;9.75;;;;;28.79;53.71;101105.09;146605;622;46010;-71
2022/06/27 06:19:56;;;;;;;;;10.00;9.50;;;;;28.83;53.91;101103.25;146607;708;46018;-70
2022/06/27 06:22:48;;;;;;;;;11.25;11.25;;;;;28.84;54.68;101105.88;146609;563;46010;-71
2022/06/27 06:25:43;;;;;;;;;12.00;10.67;;;;;28.90;54.14;101115.56;146611;588;45019;-71
2022/06/27 06:28:35;;;;;;;;;9.67;9.67;;;;;28.95;54.00;101119.03;146610;563;46012;-69
2022/06/27 06:31:27;;;;;;;;;13.33;11.00;;;;;29.03;54.55;101117.12;146605;709;46019;-72
2022/06/27 06:34:20;;;;;;;;;14.00;12.25;;;;;29.12;53.58;101118.72;146610;723;46018;-71
2022/06/27 06:37:13;;;;;;;;;11.25;8.50;;;;;29.16;53.70;101116.00;146610;565;46018;-71
2022/06/27 06:40:04;;;;;;;;;15.00;12.00;;;;;29.21;53.87;101114.09;146606;602;46019;-71
2022/06/27 06:42:59;;;;;;;;;12.00;11.00;;;;;29.27;53.44;101112.22;146608;604;46010;-71
2022/06/27 06:45:52;;;;;;;;;11.00;10.33;;;;;29.34;52.75;101122.72;146609;629;46018;-70
2022/06/27 06:48:44;;;;;;;;;14.00;10.67;;;;;29.38;52.71;101105.75;146608;593;46018;-72
2022/06/27 06:51:44;;;;;;;;;11.75;11.75;;;;;29.45;53.35;101104.72;146608;675;46010;-71
2022/06/27 06:54:37;;;;;;;;;9.67;8.33;;;;;29.42;53.25;101103.91;146611;599;46019;-72
2022/06/27 06:57:31;;;;;;;;;11.67;10.33;;;;;29.40;54.06;101119.06;146607;563;46010;-71
2022/06/27 07:00:23;;;;;;;;;11.67;11.67;;;;;29.34;53.35;101111.19;146608;673;46010;-71
2022/06/27 07:03:16;;;;;;;;;11.67;11.33;;;;;29.38;53.38;101112.91;146605;727;46010;-71
2022/06/27 07:06:09;;;;;;;;;12.00;10.33;;;;;29.45;53.27;101109.19;146607;577;46917;-71
2022/06/27 07:09:02;;;;;;;;;11.50;11.25;;;;;29.53;53.71;101117.00;146607;569;46021;-71
2022/06/27 07:11:55;;;;;;;;;14.75;10.75;;;;;29.55;53.57;101117.88;146605;710;46027;-72
2022/06/27 07:14:47;;;;;;;;;15.75;11.75;;;;;28.57;53.69;100943.62;146606;670;46018;-72
2022/06/27 07:17:52;;;;;;;;;11.25;10.25;;;;;29.61;53.13;101117.78;146610;575;46018;-71
2022/06/27 07:20:45;;;;;;;;;10.25;10.25;;;;;29.61;53.23;101117.78;146607;699;46010;-71
2022/06/27 07:23:37;;;;;;;;;12.25;12.25;;;;;29.64;52.32;101123.06;146602;592;46917;-71
2022/06/27 07:26:29;;;;;;;;;10.33;10.33;;;;;29.71;52.07;101121.13;146611;570;46019;-71
2022/06/27 07:29:22;;;;;;;;;11.33;10.33;;;;;29.77;50.20;101124.53;146606;569;46018;-72
2022/06/27 07:32:14;;;;;;;;;9.00;9.00;;;;;29.96;51.15;101125.00;146608;615;46012;-71
2022/06/27 07:35:09;;;;;;;;;10.33;10.33;;;;;30.06;50.17;101129.25;146606;620;46018;-71
2022/06/27 07:38:02;;;;;;;;;10.50;9.75;;;;;30.12;49.72;101130.88;146609;579;46010;-71
2022/06/27 07:40:56;;;;;;;;;5.67;4.00;;;;;30.18;49.10;101133.41;146615;651;46018;-72
2022/06/27 07:43:48;;;;;;;;;10.50;10.00;;;;;30.21;48.43;101122.69;146605;641;46010;-72
2022/06/27 07:46:41;;;;;;;;;10.33;9.33;;;;;30.24;48.16;101122.59;146610;602;46009;-72
2022/06/27 07:49:34;;;;;;;;;4.67;4.00;;;;;30.28;49.15;101120.72;146611;613;46010;-73
2022/06/27 07:52:26;;;;;;;;;8.25;7.00;;;;;30.34;48.47;101129.53;146611;602;46008;-75
2022/06/27 07:55:19;;;;;;;;;9.75;9.75;;;;;30.36;49.73;101124.13;146611;579;46010;-72
2022/06/27 07:58:19;;;;;;;;;10.00;10.00;;;;;30.41;48.88;101124.00;146605;704;46010;-70
2022/06/27 08:01:14;;;;;;;;;9.75;9.75;;;;;30.34;48.30;101104.53;146606;693;46018;-76
2022/06/27 08:04:07;;;;;;;;;10.75;10.75;;;;;30.45;48.11;101117.66;146611;590;46008;-80
2022/06/27 08:07:01;;;;;;;;;9.00;8.75;;;;;30.46;47.37;101122.09;146608;564;46018;-81
2022/06/27 08:09:54;;;;;;;;;7.50;7.50;;;;;30.47;47.77;101114.03;146614;684;46018;-78
2022/06/27 08:12:47;;;;;;;;;9.00;9.00;;;;;30.51;47.77;101114.84;146610;563;46026;-79
2022/06/27 08:15:41;;;;;;;;;11.00;10.00;;;;;30.43;48.22;101090.94;146610;575;46008;-81
2022/06/27 08:18:33;;;;;;;;;10.00;8.25;;;;;30.62;47.00;101112.75;146612;569;46020;-77
2022/06/27 08:21:27;;;;;;;;;12.75;10.50;;;;;30.67;46.93;101115.31;146605;609;47008;-80
2022/06/27 08:24:20;;;;;;;;;7.75;6.50;;;;;30.65;45.25;101107.31;146614;588;46010;-88
2022/06/27 08:27:13;;;;;;;;;8.25;8.25;;;;;30.70;45.24;101101.84;146612;604;46018;-91
2022/06/27 08:30:06;;;;;;;;;8.00;8.00;;;;;30.73;44.33;101102.66;146617;613;46011;-88
2022/06/27 08:32:59;;;;;;;;;9.00;9.00;;;;;30.75;44.03;101110.66;146612;590;46018;-87
2022/06/27 08:35:52;;;;;;;;;8.33;8.00;;;;;30.59;44.71;101083.38;146610;563;46018;-89
2022/06/27 08:38:50;;;;;;;;;8.67;8.67;;;;;30.77;45.04;101095.41;146609;621;47919;-87
2022/06/27 08:41:42;;;;;;;;;10.33;10.00;;;;;30.68;46.77;101084.94;146606;594;46012;-87
2022/06/27 08:44:37;;;;;;;;;10.33;9.67;;;;;30.78;45.94;101103.44;146607;585;46018;-87
2022/06/27 08:47:30;;;;;;;;;8.75;8.00;;;;;30.75;44.85;101107.97;146613;683;45047;-88
2022/06/27 08:50:22;;;;;;;;;10.00;8.00;;;;;30.75;45.07;101098.16;146607;667;46018;-88
2022/06/27 08:53:17;;;;;;;;;8.00;7.67;;;;;30.78;44.93;101097.19;146616;619;46010;-84
2022/06/27 08:56:13;;;;;;;;;9.00;9.00;;;;;30.84;44.88;101086.31;146610;569;46010;-88
2022/06/27 08:59:06;;;;;;;;;11.00;8.00;;;;;30.95;43.99;101088.72;146615;579;45021;-88
2022/06/27 09:01:58;;;;;;;;;8.67;7.67;;;;;31.01;43.13;101094.78;146613;572;46018;-88
2022/06/27 09:05:02;;;;;;;;;9.67;8.33;;;;;31.01;43.85;101097.47;146614;593;46018;-86
2022/06/27 09:07:56;;;;;;;;;10.33;8.33;;;;;30.96;40.67;101098.50;146613;594;46008;-89
2022/06/27 09:10:49;;;;;;;;;7.00;7.00;;;;;31.03;43.52;101089.41;146614;599;46010;-87
2022/06/27 09:13:41;;;;;;;;;6.25;5.50;;;;;31.13;40.74;101098.94;146612;644;46010;-87
2022/06/27 09:16:33;;;;;;;;;9.00;8.00;;;;;31.15;40.58;101090.81;146616;576;46010;-90
2022/06/27 09:19:48;;;;;;;;;11.75;9.50;;;;;30.11;43.13;100928.56;146610;583;46008;-90
2022/06/27 09:22:40;;;;;;;;;9.00;8.00;;;;;30.79;38.17;101081.09;146613;576;46021;-88
2022/06/27 09:25:37;;;;;;;;;8.67;6.67;;;;;30.53;41.43;101078.19;146613;611;46018;-89
2022/06/27 09:28:48;;;;;;;;;9.33;9.00;;;;;30.49;45.13;101084.53;146610;615;46011;-87
2022/06/27 09:31:46;;;;;;;;;10.67;9.67;;;;;30.69;42.26;101071.53;146610;569;46018;-88
2022/06/27 09:34:40;;;;;;;;;8.33;7.00;;;;;30.96;42.68;101069.91;146612;576;46018;-88
2022/06/27 09:37:32;;;;;;;;;8.67;8.67;;;;;31.17;42.46;101068.44;146615;656;46019;-89
2022/06/27 09:40:27;;;;;;;;;10.00;9.33;;;;;31.23;42.53;101052.19;146611;706;46010;-88
2022/06/27 09:43:25;;;;;;;;;9.00;8.00;;;;;31.49;41.61;101072.00;146612;566;46919;-89
2022/06/27 09:46:18;;;;;;;;;10.00;9.33;;;;;31.56;37.91;101080.72;146607;570;46018;-85
2022/06/27 09:49:12;;;;;;;;;9.33;8.67;;;;;31.55;39.71;101073.63;146616;598;45018;-89
2022/06/27 09:52:16;;;;;;;;;12.00;10.00;;;;;31.59;42.42;101064.56;146611;647;46010;-88
2022/06/27 09:55:14;;;;;;;;;8.00;8.00;;;;;31.64;40.58;101073.34;146612;571;46018;-87
2022/06/27 09:58:07;;;;;;;;;8.67;8.67;;;;;31.62;40.52;101076.09;146613;593;46010;-87
2022/06/27 10:00:59;;;;;;;;;9.25;9.00;;;;;31.65;40.88;101075.09;146612;617;46008;-86
2022/06/27 10:03:52;;;;;;;;;12.33;10.67;;;;;31.69;41.37;101077.66;146610;595;46018;-89
2022/06/27 10:06:46;;;;;;;;;10.00;9.00;;;;;31.59;41.38;101030.63;146611;576;46008;-88
2022/06/27 10:09:38;;;;;;;;;10.00;9.33;;;;;31.80;39.98;101060.34;146609;592;46010;-89
2022/06/27 10:12:36;;;;;;;;;9.25;9.00;;;;;31.79;39.71;101059.47;146611;572;46019;-91
2022/06/27 10:15:30;;;;;;;;;12.00;10.50;;;;;31.73;41.73;101036.41;146611;593;46010;-88
2022/06/27 10:18:22;;;;;;;;;10.50;10.00;;;;;31.90;40.05;101059.16;146605;709;46018;-87
2022/06/27 10:21:29;;;;;;;;;12.00;10.67;;;;;31.78;42.25;101054.13;146612;619;46011;-88
2022/06/27 10:24:41;;;;;;;;;9.25;9.00;;;;;30.82;42.57;100893.63;146611;571;46010;-89
2022/06/27 10:27:34;;;;;;;;;12.33;11.33;;;;;31.68;41.95;101043.72;146613;678;45044;-89
2022/06/27 10:30:56;;;;;;;;;10.33;10.33;;;;;31.38;40.58;100999.13;146608;669;46008;-90
2022/06/27 10:33:52;;;;;;;;;11.25;10.00;;;;;31.68;41.75;101032.09;146610;641;46010;-87
2022/06/27 10:36:45;;;;;;;;;11.25;10.25;;;;;31.45;42.33;101033.69;146605;600;46018;-88
2022/06/27 10:39:38;;;;;;;;;10.75;10.75;;;;;31.32;42.75;101029.63;146611;566;46010;-87
2022/06/27 10:42:54;;;;;;;;;11.00;10.75;;;;;31.24;42.73;101021.78;146610;621;46008;-87
2022/06/27 10:45:47;;;;;;;;;11.50;11.50;;;;;31.24;43.21;101027.16;146610;705;46010;-90
2022/06/27 10:48:56;;;;;;;;;11.00;10.25;;;;;31.36;42.58;101019.72;146608;629;46018;-89
2022/06/27 10:51:48;;;;;;;;;12.75;10.50;;;;;31.47;41.97;101017.59;146610;721;46019;-89
2022/06/27 10:54:41;;;;;;;;;11.50;10.25;;;;;31.57;41.97;101018.19;146611;701;46008;-90
2022/06/27 10:57:48;;;;;;;;;11.50;11.00;;;;;30.77;43.39;100894.63;146612;642;46010;-88
2022/06/27 11:00:46;;;;;;;;;9.00;8.00;;;;;31.65;42.72;101022.38;146612;695;46010;-87
2022/06/27 11:03:43;;;;;;;;;10.50;10.50;;;;;31.70;42.86;101022.22;146612;563;46018;-88
2022/06/27 11:06:35;;;;;;;;;12.50;11.75;;;;;31.83;41.40;101015.53;146605;567;46011;-88
2022/06/27 11:09:48;;;;;;;;;11.00;10.50;;;;;31.90;42.22;101014.47;146611;655;46010;-89
2022/06/27 11:12:41;;;;;;;;;13.50;11.75;;;;;31.92;40.41;101015.25;146610;572;46019;-85
2022/06/27 11:15:32;;;;;;;;;9.00;9.00;;;;;31.89;41.73;101006.44;146611;679;46018;-91
2022/06/27 11:18:25;;;;;;;;;11.25;10.25;;;;;31.90;41.13;101011.78;146609;587;46018;-84
2022/06/27 11:21:19;;;;;;;;;9.50;9.50;;;;;31.88;39.96;101005.53;146606;715;46019;-87
2022/06/27 11:24:14;;;;;;;;;10.75;10.00;;;;;31.88;40.46;101002.00;146607;651;46018;-86
2022/06/27 11:27:06;;;;;;;;;13.00;10.75;;;;;31.80;40.59;101004.03;146605;644;46010;-87
2022/06/27 11:33:37;;;;;;;;;13.00;13.00;;;;;31.79;43.40;100994.25;146607;581;46012;-88
2022/06/27 11:36:30;;;;;;;;;8.50;8.50;;;;;31.72;44.14;100989.09;146611;626;46018;-89
2022/06/27 11:39:30;;;;;;;;;11.00;11.00;;;;;31.71;44.24;100981.97;146604;577;45020;-87
2022/06/27 11:42:32;;;;;;;;;11.25;10.50;;;;;31.46;43.97;100928.25;146609;651;46008;-88
2022/06/27 11:45:24;;;;;;;;;11.75;10.75;;;;;31.83;43.06;100979.81;146605;588;46010;-86
2022/06/27 11:48:17;;;;;;;;;11.50;10.75;;;;;31.81;43.13;100979.87;146603;599;46008;-90
2022/06/27 11:51:28;;;;;;;;;13.50;12.25;;;;;31.84;43.64;100977.09;146608;635;46012;-90
2022/06/27 11:54:24;;;;;;;;;11.25;11.25;;;;;31.99;43.83;100978.38;146604;618;46018;-87
2022/06/27 11:57:33;;;;;;;;;13.25;13.25;;;;;32.00;43.94;100980.16;146609;586;46010;-87
2022/06/27 12:00:27;;;;;;;;;14.00;12.25;;;;;31.56;43.93;100934.22;146602;612;45919;-87
2022/06/27 12:03:20;;;;;;;;;13.75;12.00;;;;;31.80;43.85;100985.25;146601;565;46010;-85
2022/06/27 12:06:18;;;;;;;;;15.75;13.50;;;;;31.93;44.78;100975.91;146604;567;46008;-88
2022/06/27 12:09:10;;;;;;;;;14.50;14.00;;;;;31.97;44.37;100974.91;146602;576;46010;-88
2022/06/27 12:12:08;;;;;;;;;14.00;13.00;;;;;31.89;44.91;100967.09;146602;637;46018;-87
2022/06/27 12:15:00;;;;;;;;;9.75;9.50;;;;;31.78;45.53;100965.66;146611;599;46010;-86
2022/06/27 12:18:00;;;;;;;;;12.00;12.00;;;;;31.74;45.67;100972.94;146604;667;46008;-80
2022/06/27 12:20:52;;;;;;;;;14.50;13.75;;;;;31.82;46.26;100967.34;146605;569;46018;-80
2022/06/27 12:23:44;;;;;;;;;16.00;16.00;;;;;31.92;46.11;100963.44;146602;595;46019;-82
2022/06/27 12:26:36;;;;;;;;;15.25;14.50;;;;;32.06;47.08;100968.34;146606;639;45033;-80
2022/06/27 12:29:28;;;;;;;;;15.25;15.25;;;;;32.17;47.05;100961.66;146607;627;46019;-81
2022/06/27 12:32:19;;;;;;;;;12.75;12.25;;;;;32.03;44.83;100953.25;146609;567;46018;-82
2022/06/27 12:35:13;;;;;;;;;15.75;14.25;;;;;31.99;45.73;100946.19;146601;587;46918;-81
2022/06/27 12:38:07;;;;;;;;;14.25;14.25;;;;;32.00;45.48;100936.38;146601;586;46019;-83
2022/06/27 12:41:17;;;;;;;;;16.00;16.00;;;;;32.02;45.42;100935.37;146600;582;46018;-81
2022/06/27 12:44:10;;;;;;;;;14.75;14.75;;;;;32.13;45.35;100940.38;146605;564;46018;-83
2022/06/27 12:47:03;;;;;;;;;13.00;12.00;;;;;32.25;44.64;100942.63;146605;634;45045;-83
2022/06/27 12:49:55;;;;;;;;;12.25;11.75;;;;;32.34;44.72;100945.00;146602;641;46018;-82
2022/06/27 12:52:48;;;;;;;;;14.25;13.00;;;;;32.38;44.28;100943.06;146599;618;46010;-80
2022/06/27 12:55:40;;;;;;;;;17.75;16.00;;;;;32.38;44.27;100949.31;146602;577;46012;-83
2022/06/27 12:58:33;;;;;;;;;13.00;12.25;;;;;32.33;45.60;100940.53;146606;681;46018;-82
2022/06/27 13:01:25;;;;;;;;;15.75;15.75;;;;;32.38;45.38;100945.75;146606;599;46010;-83
2022/06/27 13:04:17;;;;;;;;;13.00;12.75;;;;;32.44;45.17;100942.88;146605;621;46018;-81
2022/06/27 13:07:09;;;;;;;;;13.75;13.25;;;;;32.46;42.64;100948.19;146603;603;46012;-82
2022/06/27 13:10:02;;;;;;;;;12.75;12.25;;;;;32.42;44.06;100939.34;146603;602;46918;-78
2022/06/27 13:12:54;;;;;;;;;12.25;12.00;;;;;32.36;43.30;100947.59;146601;616;46010;-81
2022/06/27 13:15:46;;;;;;;;;14.75;13.00;;;;;32.33;44.07;100950.41;146603;592;46019;-83
2022/06/27 13:18:39;;;;;;;;;12.50;12.50;;;;;32.32;44.72;100936.09;146602;572;46010;-82
2022/06/27 13:21:31;;;;;;;;;17.50;16.00;;;;;32.33;46.06;100945.03;146606;566;46008;-82
2022/06/27 13:24:23;;;;;;;;;14.50;13.75;;;;;32.32;45.26;100949.53;146606;576;46913;-82
2022/06/27 13:27:15;;;;;;;;;13.50;12.50;;;;;32.23;44.68;100940.94;146604;572;46018;-80
2022/06/27 13:30:09;;;;;;;;;13.50;11.75;;;;;32.17;45.93;100945.56;146604;595;46018;-82
2022/06/27 13:33:01;;;;;;;;;11.00;11.00;;;;;32.10;45.91;100935.13;146606;565;46008;-83
2022/06/27 13:35:54;;;;;;;;;15.00;15.00;;;;;32.07;48.32;100940.59;146604;570;46010;-83
2022/06/27 13:38:46;;;;;;;;;15.50;15.50;;;;;32.10;48.03;100938.69;146601;618;46018;-83
2022/06/27 13:41:39;;;;;;;;;16.00;15.75;;;;;32.12;47.60;100930.56;146605;571;46010;-82
2022/06/27 13:44:32;;;;;;;;;13.25;12.75;;;;;32.12;45.64;100941.28;146604;566;46019;-82
2022/06/27 13:47:25;;;;;;;;;11.50;11.25;;;;;32.09;46.99;100936.03;146604;563;46018;-83
2022/06/27 13:50:17;;;;;;;;;13.50;13.00;;;;;32.06;46.23;100937.03;146604;607;46919;-81
2022/06/27 13:53:09;;;;;;;;;13.00;13.00;;;;;32.04;47.45;100932.66;146605;569;46019;-83